Time;durP1;ratioP1;P1;durP2;ratioP2;P2;SDS_P1;SDS_P2;PMS_P1;PMS_P2;Temp;Humidity;BMP_temperature;BMP_pressure;BME280_temperature;BME280_humidity;BME280_pressure;Samples;Min_cycle;Max_cycle;Signal;HPM_P1;HPM_P2
2024/03/14 00:00:06;;;;;;;12.02;8.45;;;;;;;12.24;95.43;101028.34;5090750;28;20060;-63
2024/03/14 00:02:40;;;;;;;15.50;9.50;;;;;;;12.04;95.53;101021.44;5088592;28;20052;-63
2024/03/14 00:05:09;;;;;;;16.23;9.68;;;;;;;11.70;96.93;101028.66;5087816;28;20056;-62
2024/03/14 00:07:37;;;;;;;12.77;9.48;;;;;;;11.76;97.98;101017.19;5071963;28;20052;-62
2024/03/14 00:10:06;;;;;;;13.80;9.63;;;;;;;11.90;96.98;101015.16;5089196;28;20617;-62
2024/03/14 00:12:33;;;;;;;12.30;9.43;;;;;;;11.70;97.85;101014.88;5071468;28;20534;-62
2024/03/14 00:15:01;;;;;;;19.08;10.52;;;;;;;11.69;99.00;101019.56;5067742;28;20044;-62
2024/03/14 00:17:28;;;;;;;13.18;9.68;;;;;;;11.78;98.08;101008.56;5075367;28;20056;-62
2024/03/14 00:19:55;;;;;;;15.00;9.70;;;;;;;11.82;97.55;101007.63;5088248;28;20055;-62
2024/03/14 00:22:23;;;;;;;13.77;9.20;;;;;;;11.68;98.14;101006.06;5087599;28;20551;-63
2024/03/14 00:24:52;;;;;;;15.43;9.25;;;;;;;11.50;98.44;101007.03;5083587;28;20064;-64
2024/03/14 00:27:19;;;;;;;14.68;10.18;;;;;;;11.34;100.00;101001.06;5070563;28;20044;-63
2024/03/14 00:29:47;;;;;;;13.93;9.40;;;;;;;11.36;100.00;101001.56;5082796;28;20056;-63
2024/03/14 00:32:14;;;;;;;14.65;9.52;;;;;;;11.46;99.87;100994.97;5089147;28;20044;-62
2024/03/14 00:34:42;;;;;;;17.42;10.30;;;;;;;11.59;99.54;100994.94;5089723;28;20415;-61
2024/03/14 00:37:09;;;;;;;16.00;9.98;;;;;;;11.76;98.31;101000.63;5090104;28;20048;-63
2024/03/14 00:39:36;;;;;;;13.18;9.40;;;;;;;11.75;98.02;100998.19;5089555;28;20051;-62
2024/03/14 00:42:06;;;;;;;16.92;10.20;;;;;;;11.78;97.42;101000.31;5089663;28;20277;-61
2024/03/14 00:44:34;;;;;;;13.60;10.30;;;;;;;11.75;97.02;100992.66;5089668;28;20056;-61
2024/03/14 00:47:04;;;;;;;15.18;11.07;;;;;;;11.66;97.76;100991.78;5071927;28;20044;-62
2024/03/14 00:49:32;;;;;;;17.15;9.85;;;;;;;11.58;97.65;100987.78;5087134;28;20783;-63
2024/03/14 00:51:59;;;;;;;15.95;9.98;;;;;;;11.42;98.40;100986.50;5104458;28;20079;-62
2024/03/14 00:54:29;;;;;;;15.07;9.88;;;;;;;11.44;98.72;100983.47;5087900;28;20159;-62
2024/03/14 00:56:57;;;;;;;16.55;10.70;;;;;;;11.33;99.14;100982.91;5089996;28;20462;-62
2024/03/14 00:59:27;;;;;;;14.77;9.93;;;;;;;11.44;98.95;100981.50;5089608;28;20056;-63
2024/03/14 01:01:54;;;;;;;16.67;9.57;;;;;;;11.57;98.25;100977.06;5089971;28;20051;-63
2024/03/14 01:04:22;;;;;;;17.52;10.50;;;;;;;11.28;99.00;100972.78;5089631;28;20609;-62
2024/03/14 01:06:52;;;;;;;15.93;10.25;;;;;;;11.68;99.28;100971.00;5086595;28;20048;-64
2024/03/14 01:09:24;;;;;;;14.13;9.75;;;;;;;11.63;97.60;100970.31;5069160;28;20052;-62
2024/03/14 01:11:53;;;;;;;14.82;9.82;;;;;;;11.60;97.27;100970.91;5068985;28;20060;-61
2024/03/14 01:14:23;;;;;;;14.23;9.50;;;;;;;11.58;97.82;100964.88;5050819;28;20055;-62
2024/03/14 01:16:51;;;;;;;;;;;;;;;11.59;97.28;100972.88;5068756;28;20048;-64
2024/03/14 01:19:18;;;;;;;15.13;9.98;;;;;;;11.43;97.47;100966.09;5070355;28;19932;-65
2024/03/14 01:21:46;;;;;;;13.07;9.27;;;;;;;11.33;97.99;100969.09;5088831;28;20056;-64
2024/03/14 01:24:13;;;;;;;12.85;9.75;;;;;;;11.63;97.66;100962.03;5088157;28;20056;-64
2024/03/14 01:26:41;;;;;;;13.10;9.60;;;;;;;11.62;96.94;100963.97;5102929;28;20059;-64
2024/03/14 01:29:10;;;;;;;12.48;9.50;;;;;;;11.42;97.53;100958.16;5088484;28;20063;-65
2024/03/14 01:31:38;;;;;;;13.27;9.73;;;;;;;11.54;98.23;100956.44;5088385;28;20059;-65
2024/03/14 01:34:07;;;;;;;18.85;10.10;;;;;;;11.51;97.34;100959.81;5085541;28;20066;-65
2024/03/14 01:36:39;;;;;;;16.50;10.32;;;;;;;11.41;97.56;100962.00;5086936;28;20508;-65
2024/03/14 01:39:10;;;;;;;16.35;11.50;;;;;;;11.14;98.94;100963.75;5086173;28;20060;-64
2024/03/14 01:41:38;;;;;;;17.70;11.00;;;;;;;11.24;99.30;100959.94;5087452;28;20063;-64
2024/03/14 01:44:06;;;;;;;16.58;11.07;;;;;;;11.18;99.17;100961.19;5088169;28;20060;-64
2024/03/14 01:46:33;;;;;;;14.50;10.70;;;;;;;11.15;99.43;100956.28;5087817;28;20539;-64
2024/03/14 01:49:01;;;;;;;14.65;11.05;;;;;;;11.15;99.53;100953.53;5087996;28;20788;-64
2024/03/14 01:51:29;;;;;;;16.25;11.13;;;;;;;11.41;98.87;100950.97;5087392;28;20048;-64
2024/03/14 01:53:57;;;;;;;16.70;10.70;;;;;;;11.24;98.68;100949.72;5087356;28;20052;-63
2024/03/14 01:56:24;;;;;;;16.45;10.82;;;;;;;11.19;98.92;100949.84;5088380;28;20775;-65
2024/03/14 01:58:53;;;;;;;14.90;10.88;;;;;;;11.16;99.06;100942.19;5088759;28;20640;-64
2024/03/14 02:01:21;;;;;;;14.35;10.20;;;;;;;10.97;100.00;100938.78;5070339;28;20074;-64
2024/03/14 02:04:04;;;;;;;16.83;10.98;;;;;;;11.05;100.00;100940.78;5088166;28;20048;-64
2024/03/14 02:06:40;;;;;;;17.95;10.80;;;;;;;11.03;100.00;100931.22;5102568;28;20051;-65
2024/03/14 02:09:08;;;;;;;16.63;9.88;;;;;;;11.07;100.00;100933.03;5069881;28;20048;-64
2024/03/14 02:11:35;;;;;;;14.00;10.65;;;;;;;11.08;100.00;100925.59;5074720;28;20056;-65
2024/03/14 02:14:02;;;;;;;16.40;10.30;;;;;;;10.92;100.00;100916.84;5066194;28;20681;-65
2024/03/14 02:16:30;;;;;;;17.55;10.43;;;;;;;10.79;100.00;100914.16;5076833;28;20534;-65
2024/03/14 02:18:57;;;;;;;16.55;9.95;;;;;;;10.87;100.00;100914.22;5085170;28;20064;-65
2024/03/14 02:21:24;;;;;;;13.70;10.00;;;;;;;10.98;100.00;100920.31;5070741;28;20696;-64
2024/03/14 02:23:51;;;;;;;13.05;9.75;;;;;;;11.00;100.00;100916.09;5076681;28;20048;-64
2024/03/14 02:26:19;;;;;;;14.02;9.50;;;;;;;10.93;100.00;100912.16;5086412;28;20056;-64
2024/03/14 02:28:46;;;;;;;14.70;10.18;;;;;;;10.81;100.00;100909.94;5087105;28;20056;-64
2024/03/14 02:31:13;;;;;;;13.60;9.95;;;;;;;10.92;100.00;100900.31;5077563;28;20067;-64
2024/03/14 02:33:40;;;;;;;11.55;8.73;;;;;;;10.80;100.00;100904.75;5068866;28;20052;-64
2024/03/14 02:36:08;;;;;;;13.18;9.38;;;;;;;10.76;100.00;100892.69;5086139;28;20040;-64
2024/03/14 02:38:35;;;;;;;13.55;9.20;;;;;;;10.78;100.00;100888.53;5077536;28;20485;-64
2024/03/14 02:41:03;;;;;;;13.80;8.73;;;;;;;10.75;100.00;100885.56;5068651;28;20075;-64
2024/03/14 02:43:30;;;;;;;12.65;9.50;;;;;;;10.73;100.00;100890.56;5087292;28;20052;-64
2024/03/14 02:45:57;;;;;;;14.07;8.88;;;;;;;10.79;100.00;100892.09;5087885;28;20066;-64
2024/03/14 02:48:25;;;;;;;11.98;8.88;;;;;;;10.81;100.00;100878.84;5084872;28;20574;-64
2024/03/14 02:50:52;;;;;;;14.15;9.23;;;;;;;10.57;100.00;100873.56;5067192;28;20049;-63
2024/03/14 02:53:19;;;;;;;14.93;9.35;;;;;;;10.63;100.00;100877.88;5067085;28;20052;-64
2024/03/14 02:55:46;;;;;;;12.57;9.13;;;;;;;10.71;100.00;100876.28;5066942;28;20064;-64
2024/03/14 02:58:14;;;;;;;11.40;8.85;;;;;;;10.66;100.00;100871.72;5067224;28;20055;-64
2024/03/14 03:00:42;;;;;;;14.15;9.23;;;;;;;10.56;100.00;100865.63;5077194;28;20419;-64
2024/03/14 03:03:10;;;;;;;11.85;8.40;;;;;;;10.72;100.00;100875.97;5101874;28;20060;-65
2024/03/14 03:05:37;;;;;;;13.40;9.25;;;;;;;10.73;100.00;100871.28;5088083;28;20063;-65
2024/03/14 03:08:05;;;;;;;15.95;9.07;;;;;;;10.88;100.00;100871.75;5091309;28;20071;-65
2024/03/14 03:10:32;;;;;;;14.23;9.10;;;;;;;10.66;100.00;100877.22;5091307;28;20066;-65
2024/03/14 03:13:00;;;;;;;11.95;8.80;;;;;;;10.71;100.00;100868.84;5088224;28;20056;-65
2024/03/14 03:15:27;;;;;;;17.33;10.10;;;;;;;10.52;100.00;100865.44;5090632;28;20048;-65
2024/03/14 03:17:55;;;;;;;10.98;8.43;;;;;;;10.52;100.00;100868.19;5090987;28;20056;-64
2024/03/14 03:20:22;;;;;;;12.85;9.00;;;;;;;10.67;100.00;100859.56;5090530;28;20051;-64
2024/03/14 03:25:36;;;;;;;12.77;8.88;;;;;;;10.61;100.00;100869.09;5088981;28;20060;-64
2024/03/14 03:28:04;;;;;;;14.60;9.90;;;;;;;10.42;100.00;100859.34;5091225;28;20048;-64
2024/03/14 03:30:31;;;;;;;13.73;9.60;;;;;;;10.50;100.00;100856.66;5105965;28;20573;-64
2024/03/14 03:33:00;;;;;;;15.00;9.75;;;;;;;10.35;100.00;100859.75;5090706;28;20055;-64
2024/03/14 03:35:27;;;;;;;13.05;9.52;;;;;;;10.45;100.00;100854.03;5090062;28;20628;-65
2024/03/14 03:37:55;;;;;;;12.18;9.15;;;;;;;10.35;100.00;100861.69;5091031;28;20097;-63
2024/03/14 03:40:22;;;;;;;13.45;9.93;;;;;;;10.51;100.00;100851.97;5090154;28;20411;-64
2024/03/14 03:42:53;;;;;;;13.35;9.10;;;;;;;10.59;100.00;100854.81;5072123;28;20052;-64
2024/03/14 03:45:22;;;;;;;19.55;9.20;;;;;;;10.59;100.00;100849.31;5090634;28;20059;-65
2024/03/14 03:47:50;;;;;;;13.70;9.95;;;;;;;10.49;100.00;100841.28;5083664;28;20547;-65
2024/03/14 03:50:18;;;;;;;14.85;9.30;;;;;;;10.47;100.00;100843.53;5069525;28;20056;-64
2024/03/14 03:52:46;;;;;;;13.35;9.13;;;;;;;10.50;100.00;100842.88;5084877;28;20260;-66
2024/03/14 03:55:16;;;;;;;16.08;9.48;;;;;;;10.57;100.00;100842.47;5069539;28;20048;-64
2024/03/14 03:57:45;;;;;;;13.75;9.38;;;;;;;10.54;100.00;100843.09;5070394;28;20052;-64
2024/03/14 04:01:06;;;;;;;12.40;8.93;;;;;;;10.45;100.00;100836.69;5068545;28;20040;-66
2024/03/14 04:03:07;;;;;;;11.80;8.40;;;;;;;10.33;100.00;100836.41;5062988;28;20056;-64
2024/03/14 04:05:44;;;;;;;14.93;8.93;;;;;;;10.52;100.00;100837.06;5067840;28;20064;-64
2024/03/14 04:08:14;;;;;;;14.45;9.23;;;;;;;10.46;100.00;100824.56;5073075;28;20047;-64
2024/03/14 04:10:42;;;;;;;12.57;8.93;;;;;;;10.54;100.00;100821.06;5089484;28;20048;-64
2024/03/14 04:13:11;;;;;;;12.00;8.20;;;;;;;10.62;100.00;100812.84;5104417;28;20059;-64
2024/03/14 04:15:38;;;;;;;15.68;9.52;;;;;;;10.46;100.00;100810.78;5089614;28;20063;-61
2024/03/14 04:18:06;;;;;;;11.75;9.05;;;;;;;10.32;100.00;100808.03;5104788;28;20056;-62
2024/03/14 04:20:37;;;;;;;12.75;8.98;;;;;;;10.45;100.00;100798.94;5089978;28;20064;-62
2024/03/14 04:23:05;;;;;;;14.68;9.50;;;;;;;10.41;100.00;100799.88;5079546;28;20056;-63
2024/03/14 04:25:32;;;;;;;12.18;8.70;;;;;;;10.46;100.00;100808.03;5066401;28;20067;-61
2024/03/14 04:28:00;;;;;;;13.40;8.50;;;;;;;10.41;100.00;100802.66;5089554;28;20056;-62
2024/03/14 04:30:27;;;;;;;12.98;9.10;;;;;;;10.40;100.00;100807.31;5070610;28;20052;-61
2024/03/14 04:32:57;;;;;;;11.25;8.27;;;;;;;10.13;100.00;100802.69;5104784;28;20055;-61
2024/03/14 04:35:25;;;;;;;13.27;8.85;;;;;;;10.20;100.00;100797.56;5087770;28;20056;-61
2024/03/14 04:37:52;;;;;;;13.05;8.80;;;;;;;10.39;100.00;100794.66;5089754;28;20558;-62
2024/03/14 04:40:21;;;;;;;11.50;8.80;;;;;;;10.30;100.00;100796.56;5069920;28;20051;-62
2024/03/14 04:42:55;;;;;;;15.88;8.93;;;;;;;10.17;100.00;100789.13;5089279;28;20056;-62
2024/03/14 04:45:24;;;;;;;13.75;8.85;;;;;;;10.02;100.00;100784.72;5089373;28;20068;-61
2024/03/14 04:47:52;;;;;;;14.68;9.15;;;;;;;10.03;100.00;100785.53;5087720;28;20056;-62
2024/03/14 04:50:20;;;;;;;12.50;8.15;;;;;;;10.03;100.00;100777.28;5075642;28;20052;-62
2024/03/14 04:52:49;;;;;;;14.00;8.23;;;;;;;10.06;100.00;100777.47;5076509;28;20907;-63
2024/03/14 04:55:17;;;;;;;11.68;8.60;;;;;;;9.87;100.00;100767.72;5082879;28;20078;-61
2024/03/14 04:57:45;;;;;;;11.35;8.50;;;;;;;9.91;100.00;100774.25;5084375;28;20057;-62
2024/03/14 05:02:55;;;;;;;17.60;8.55;;;;;;;10.02;100.00;100770.97;5083321;28;20059;-62
2024/03/14 05:05:24;;;;;;;12.10;8.65;;;;;;;10.18;100.00;100775.03;5082358;28;20063;-61
2024/03/14 05:07:53;;;;;;;12.57;8.68;;;;;;;10.20;100.00;100764.53;5088910;28;20044;-61
2024/03/14 05:10:21;;;;;;;12.70;8.75;;;;;;;10.04;100.00;100774.22;5088790;28;20052;-63
2024/03/14 05:12:49;;;;;;;14.48;9.10;;;;;;;10.03;100.00;100774.53;5088949;28;20060;-62
2024/03/14 05:15:16;;;;;;;11.95;8.70;;;;;;;10.12;100.00;100780.97;5087436;28;20052;-64
2024/03/14 05:17:45;;;;;;;13.13;8.50;;;;;;;9.89;100.00;100782.00;5087370;28;20499;-62
2024/03/14 05:20:13;;;;;;;14.88;9.07;;;;;;;10.04;100.00;100779.72;5087559;28;20047;-62
2024/03/14 05:22:42;;;;;;;12.38;8.75;;;;;;;10.11;100.00;100779.38;5088946;28;20059;-62
2024/03/14 05:25:11;;;;;;;12.98;8.32;;;;;;;10.05;100.00;100781.38;5069978;28;20065;-62
2024/03/14 05:27:43;;;;;;;;;;;;;;;10.02;100.00;100778.44;5089365;28;20052;-61
2024/03/14 05:30:13;;;;;;;14.25;8.20;;;;;;;9.93;100.00;100780.25;5088707;28;19924;-65
2024/03/14 05:32:41;;;;;;;10.57;8.13;;;;;;;10.00;100.00;100777.91;5084817;28;20518;-65
2024/03/14 05:35:10;;;;;;;15.07;8.95;;;;;;;9.92;100.00;100779.44;5087972;28;20051;-64
2024/03/14 05:37:37;;;;;;;12.25;8.88;;;;;;;9.90;100.00;100784.44;5088679;28;20616;-64
2024/03/14 05:40:09;;;;;;;11.73;8.45;;;;;;;10.13;100.00;100788.09;5103717;28;20052;-64
2024/03/14 05:42:37;;;;;;;13.05;8.57;;;;;;;10.01;100.00;100788.59;5088312;28;20055;-63
2024/03/14 05:45:05;;;;;;;11.82;8.52;;;;;;;10.06;100.00;100780.25;5066351;28;20044;-64
2024/03/14 05:47:35;;;;;;;14.45;8.93;;;;;;;10.03;100.00;100782.78;5079623;28;20060;-64
2024/03/14 05:50:06;;;;;;;11.25;8.48;;;;;;;10.15;100.00;100783.94;5074805;28;20036;-65
2024/03/14 05:52:35;;;;;;;11.57;8.38;;;;;;;10.04;100.00;100781.69;5087718;28;20060;-65
2024/03/14 05:55:03;;;;;;;12.30;8.50;;;;;;;9.99;100.00;100782.59;5087368;28;20044;-64
2024/03/14 05:57:30;;;;;;;12.75;8.43;;;;;;;10.07;100.00;100781.06;5086715;28;20071;-64
2024/03/14 05:59:58;;;;;;;11.90;8.73;;;;;;;10.00;100.00;100773.22;5087945;28;20586;-64
2024/03/14 06:02:26;;;;;;;14.05;8.90;;;;;;;10.12;100.00;100778.22;5052460;28;20312;-64
2024/03/14 06:04:53;;;;;;;15.77;8.90;;;;;;;10.03;100.00;100774.53;5069133;28;20055;-66
2024/03/14 06:07:20;;;;;;;13.05;8.10;;;;;;;10.14;100.00;100774.06;5086971;28;20502;-64
2024/03/14 06:09:50;;;;;;;13.63;8.60;;;;;;;10.15;100.00;100774.84;5079935;28;20044;-65
2024/03/14 06:12:18;;;;;;;12.50;8.23;;;;;;;10.04;100.00;100765.19;5048385;28;20063;-62
2024/03/14 06:14:46;;;;;;;17.83;8.93;;;;;;;9.72;100.00;100774.38;5065056;28;20052;-62
2024/03/14 06:17:15;;;;;;;14.25;8.35;;;;;;;9.76;100.00;100774.56;5067307;28;20056;-63
2024/03/14 06:19:42;;;;;;;15.35;8.80;;;;;;;10.00;100.00;100773.22;5082881;28;20043;-62
2024/03/14 06:22:14;;;;;;;16.80;8.20;;;;;;;9.79;100.00;100771.22;5087084;28;20410;-63
2024/03/14 06:24:46;;;;;;;12.15;8.23;;;;;;;9.90;100.00;100775.38;5086723;28;20040;-62
2024/03/14 06:27:14;;;;;;;14.68;8.63;;;;;;;9.97;100.00;100775.78;5087003;28;20065;-62
2024/03/14 06:29:41;;;;;;;13.75;9.18;;;;;;;9.68;100.00;100775.28;5072822;28;20044;-62
2024/03/14 06:32:09;;;;;;;16.52;8.35;;;;;;;9.85;100.00;100776.28;5085986;28;20055;-62
2024/03/14 06:34:37;;;;;;;13.40;8.15;;;;;;;9.80;100.00;100772.81;5089546;28;20482;-62
2024/03/14 06:37:04;;;;;;;14.10;8.40;;;;;;;9.89;100.00;100757.22;5085413;28;20056;-62
2024/03/14 06:39:32;;;;;;;16.77;8.98;;;;;;;9.92;100.00;100762.94;5086534;28;20146;-63
2024/03/14 06:42:04;;;;;;;13.65;8.45;;;;;;;9.85;100.00;100761.75;5086969;28;20048;-62
2024/03/14 06:44:32;;;;;;;15.20;8.95;;;;;;;9.99;100.00;100760.56;5086382;28;20060;-62
2024/03/14 06:46:59;;;;;;;12.88;8.48;;;;;;;10.04;100.00;100763.22;5083479;28;20064;-61
2024/03/14 06:49:26;;;;;;;15.40;8.43;;;;;;;9.88;100.00;100758.38;5090734;28;20058;-62
2024/03/14 06:51:55;;;;;;;15.40;8.70;;;;;;;9.85;100.00;100762.53;5107386;28;20067;-63
2024/03/14 06:54:24;;;;;;;15.73;9.25;;;;;;;9.85;100.00;100761.75;5092777;28;20497;-63
2024/03/14 06:56:53;;;;;;;15.82;9.35;;;;;;;9.92;100.00;100756.63;5073888;28;20500;-63
2024/03/14 06:59:20;;;;;;;14.63;9.48;;;;;;;9.85;100.00;100750.75;5085819;28;20646;-61
2024/03/14 07:01:48;;;;;;;12.45;8.65;;;;;;;9.72;100.00;100762.56;5087001;28;20048;-62
2024/03/14 07:04:16;;;;;;;16.85;9.88;;;;;;;9.75;100.00;100754.50;5085165;28;20096;-64
2024/03/14 07:06:43;;;;;;;14.98;9.82;;;;;;;10.04;100.00;100751.41;5075322;28;20066;-64
2024/03/14 07:09:17;;;;;;;12.80;9.13;;;;;;;10.23;100.00;100752.13;5086036;28;20086;-63
2024/03/14 07:11:46;;;;;;;17.13;9.40;;;;;;;10.35;100.00;100743.28;5086794;28;20059;-65
2024/03/14 07:14:15;;;;;;;15.02;9.80;;;;;;;10.15;99.74;100745.41;5082619;28;20060;-64
2024/03/14 07:16:44;;;;;;;12.38;9.43;;;;;;;9.94;100.00;100748.88;5072754;28;20057;-64
2024/03/14 07:19:17;;;;;;;13.20;9.73;;;;;;;10.14;100.00;100745.72;5084474;28;20060;-64
2024/03/14 07:21:45;;;;;;;17.05;10.80;;;;;;;9.91;100.00;100753.06;5086084;28;20052;-63
2024/03/14 07:24:12;;;;;;;17.48;10.38;;;;;;;9.98;100.00;100755.38;5086443;28;20051;-60
2024/03/14 07:26:43;;;;;;;18.48;10.05;;;;;;;10.05;100.00;100753.84;5088679;28;20071;-60
2024/03/14 07:29:12;;;;;;;15.35;9.80;;;;;;;10.33;100.00;100749.13;5093433;28;20054;-61
2024/03/14 07:31:43;;;;;;;20.10;10.70;;;;;;;10.21;99.84;100746.09;5095375;28;20052;-65
2024/03/14 07:34:10;;;;;;;22.58;10.82;;;;;;;10.04;99.62;100754.16;5095104;28;20893;-62
2024/03/14 07:36:39;;;;;;;17.98;9.93;;;;;;;10.31;99.84;100756.03;5086334;28;20044;-62
2024/03/14 07:39:09;;;;;;;16.67;10.23;;;;;;;10.20;99.27;100744.44;5091303;28;20506;-61
2024/03/14 07:41:41;;;;;;;19.73;10.10;;;;;;;10.26;99.69;100750.66;5102268;28;20044;-62
2024/03/14 07:44:09;;;;;;;24.80;10.20;;;;;;;10.37;98.89;100741.88;5079739;28;20048;-60
2024/03/14 07:46:52;;;;;;;20.88;10.00;;;;;;;10.26;99.29;100742.41;5084890;28;20060;-62
2024/03/14 07:49:20;;;;;;;18.52;10.43;;;;;;;10.28;99.89;100743.72;5082901;28;20052;-59
2024/03/14 07:51:47;;;;;;;20.58;12.00;;;;;;;9.94;100.00;100743.34;5081325;28;20048;-61
2024/03/14 07:54:15;;;;;;;21.98;11.40;;;;;;;10.28;100.00;100740.97;5091935;28;20051;-62
2024/03/14 07:56:46;;;;;;;18.48;10.43;;;;;;;10.46;99.03;100750.19;5087891;28;20052;-62
2024/03/14 07:59:14;;;;;;;19.80;10.75;;;;;;;10.57;98.82;100746.06;5087639;28;20056;-63
2024/03/14 08:01:44;;;;;;;16.30;10.27;;;;;;;10.67;98.07;100743.88;5089104;28;20048;-65
2024/03/14 08:04:13;;;;;;;19.13;9.90;;;;;;;10.83;97.16;100734.09;5090991;28;20059;-65
2024/03/14 08:06:45;;;;;;;;;;;;;;;10.95;95.51;100739.03;5091668;28;20067;-64
2024/03/14 08:09:14;;;;;;;16.50;9.63;;;;;;;10.92;95.82;100742.41;5089279;28;19934;-64
2024/03/14 08:11:42;;;;;;;17.57;9.40;;;;;;;10.76;96.94;100753.00;5091443;28;20056;-64
2024/03/14 08:14:10;;;;;;;15.68;10.20;;;;;;;10.89;97.04;100743.06;5110417;27;20051;-64
2024/03/14 08:16:54;;;;;;;15.23;9.15;;;;;;;10.97;96.88;100745.03;5091394;28;20050;-66
2024/03/14 08:19:23;;;;;;;16.50;9.43;;;;;;;11.22;95.04;100736.09;5091779;28;20048;-61
2024/03/14 08:21:50;;;;;;;15.70;9.43;;;;;;;11.31;94.68;100734.22;5094814;28;20047;-64
2024/03/14 08:24:19;;;;;;;17.42;9.07;;;;;;;11.31;94.55;100734.22;5098618;28;20059;-63
2024/03/14 08:26:47;;;;;;;16.50;9.05;;;;;;;11.37;93.63;100741.19;5089148;28;20051;-64
2024/03/14 08:29:14;;;;;;;15.90;9.30;;;;;;;11.24;94.06;100739.38;5098321;28;20044;-63
2024/03/14 08:31:41;;;;;;;21.08;9.60;;;;;;;11.39;94.31;100733.41;5093663;28;20055;-64
2024/03/14 08:34:09;;;;;;;16.05;8.45;;;;;;;11.23;93.72;100733.03;5088230;28;20059;-63
2024/03/14 08:36:40;;;;;;;;;;;;;;;11.44;94.12;100716.72;5080996;28;20052;-63
2024/03/14 08:39:11;;;;;;;16.17;9.05;;;;;;;11.55;92.88;100717.25;5086139;28;19923;-63
2024/03/14 08:41:39;;;;;;;16.15;9.45;;;;;;;11.29;94.92;100726.25;5071790;28;20051;-62
2024/03/14 08:44:07;;;;;;;14.55;9.35;;;;;;;11.38;94.42;100721.56;5093604;28;20063;-64
2024/03/14 08:46:35;;;;;;;11.30;8.38;;;;;;;11.31;94.57;100723.19;5099046;28;20059;-63
2024/03/14 08:49:03;;;;;;;14.75;8.68;;;;;;;11.44;94.25;100724.22;5087275;28;20052;-62
2024/03/14 08:51:31;;;;;;;18.60;9.02;;;;;;;11.51;93.92;100727.28;5083795;28;20056;-63
2024/03/14 08:54:28;;;;;;;19.83;8.43;;;;;;;11.53;93.74;100719.50;5084413;28;20044;-63
2024/03/14 08:56:58;;;;;;;16.13;8.43;;;;;;;11.77;91.73;100723.50;5101166;28;20044;-64
2024/03/14 08:59:28;;;;;;;11.68;8.20;;;;;;;11.73;92.29;100719.78;5090049;28;20120;-64
2024/03/14 09:01:55;;;;;;;14.68;8.38;;;;;;;11.84;91.68;100717.50;5093735;28;20641;-63
2024/03/14 09:04:23;;;;;;;19.52;8.57;;;;;;;11.74;92.35;100717.81;5090954;28;20056;-63
2024/03/14 09:06:50;;;;;;;13.82;8.02;;;;;;;11.91;90.98;100715.09;5078686;28;20679;-63
2024/03/14 09:09:26;;;;;;;16.83;8.65;;;;;;;11.86;91.42;100712.50;5106152;28;20051;-64
2024/03/14 09:12:08;;;;;;;14.73;7.93;;;;;;;12.15;90.88;100705.22;5099451;28;20051;-65
2024/03/14 09:14:36;;;;;;;13.65;7.70;;;;;;;12.20;90.84;100709.78;5094344;27;20044;-66
2024/03/14 09:17:07;;;;;;;14.45;8.07;;;;;;;12.46;89.52;100710.59;5090675;28;20447;-66
2024/03/14 09:19:35;;;;;;;12.18;7.72;;;;;;;12.53;88.58;100707.34;5104144;28;20063;-65
2024/03/14 09:22:09;;;;;;;15.55;7.68;;;;;;;12.68;87.61;100707.63;5086844;28;20051;-65
2024/03/14 09:24:39;;;;;;;21.00;8.25;;;;;;;12.54;87.66;100706.19;5072421;28;20047;-63
2024/03/14 09:27:11;;;;;;;17.70;7.20;;;;;;;12.69;87.87;100698.22;5087058;28;20052;-64
2024/03/14 09:29:39;;;;;;;12.95;7.72;;;;;;;12.76;87.90;100697.72;5087165;28;20052;-63
2024/03/14 09:32:15;;;;;;;14.30;7.13;;;;;;;12.74;88.14;100692.53;5098193;27;20126;-63
2024/03/14 09:34:43;;;;;;;15.80;8.30;;;;;;;12.86;87.01;100700.13;5090728;28;20055;-65
2024/03/14 09:37:12;;;;;;;17.23;7.10;;;;;;;13.16;86.31;100696.34;5108047;27;20043;-66
2024/03/14 09:39:40;;;;;;;14.77;7.07;;;;;;;13.25;85.59;100695.13;5093957;28;20047;-65
2024/03/14 09:42:08;;;;;;;17.38;7.72;;;;;;;13.49;84.34;100689.81;5097825;28;20494;-69
2024/03/14 09:44:36;;;;;;;14.95;6.68;;;;;;;13.29;84.39;100685.03;5089279;28;20052;-66
2024/03/14 09:47:31;;;;;;;12.02;6.32;;;;;;;13.48;83.53;100685.44;5092004;28;20036;-66
2024/03/14 09:50:08;;;;;;;12.70;6.63;;;;;;;13.74;83.03;100685.28;5091980;28;20490;-68
2024/03/14 09:52:39;;;;;;;;;;;;;;;13.64;81.71;100690.41;5089805;28;20052;-65
2024/03/14 09:55:10;;;;;;;15.48;5.90;;;;;;;13.84;81.84;100684.91;5056693;28;20464;-66
2024/03/14 09:57:42;;;;;;;14.40;5.63;;;;;;;13.83;81.58;100685.22;5087465;28;20123;-67
2024/03/14 10:00:20;;;;;;;14.70;5.60;;;;;;;14.14;80.57;100678.16;5090850;28;20067;-68
2024/03/14 10:02:49;;;;;;;11.30;5.80;;;;;;;14.24;80.07;100677.75;5105848;28;20047;-69
2024/03/14 10:05:28;;;;;;;12.02;6.07;;;;;;;14.15;79.72;100677.03;5092198;28;20048;-67
2024/03/14 10:07:57;;;;;;;15.25;5.72;;;;;;;14.24;79.66;100665.88;5090915;28;20055;-66
2024/03/14 10:10:31;;;;;;;13.02;5.45;;;;;;;13.92;80.33;100669.38;5091378;28;20078;-68
2024/03/14 10:13:02;;;;;;;10.27;5.35;;;;;;;14.20;79.78;100656.59;5106588;27;20047;-70
2024/03/14 10:15:37;;;;;;;15.38;6.22;;;;;;;14.30;78.82;100656.22;5095591;28;20383;-67
2024/03/14 10:18:10;;;;;;;16.48;5.78;;;;;;;14.06;79.77;100653.31;5093265;28;20052;-66
2024/03/14 10:20:43;;;;;;;14.77;6.38;;;;;;;14.25;78.35;100656.41;5088735;28;20063;-67
2024/03/14 10:23:15;;;;;;;10.90;5.30;;;;;;;14.21;78.77;100650.72;5091342;28;20501;-68
2024/03/14 10:25:50;;;;;;;13.18;5.45;;;;;;;14.66;77.41;100648.84;5091065;28;20048;-65
2024/03/14 10:28:28;;;;;;;10.20;5.50;;;;;;;14.27;78.04;100640.28;5106322;27;20067;-65
2024/03/14 10:31:05;;;;;;;8.90;5.07;;;;;;;14.40;78.29;100641.97;5089716;28;20040;-63
2024/03/14 10:33:33;;;;;;;12.13;5.53;;;;;;;14.59;77.27;100636.72;5067781;28;20060;-64
2024/03/14 10:36:01;;;;;;;13.05;5.50;;;;;;;15.07;75.78;100639.59;5091146;28;20051;-63
2024/03/14 10:38:35;;;;;;;12.63;4.63;;;;;;;15.15;75.05;100629.53;5081791;28;20051;-63
2024/03/14 10:41:09;;;;;;;12.27;5.32;;;;;;;15.13;74.32;100627.09;5098651;28;20052;-64
2024/03/14 10:43:42;;;;;;;9.80;5.15;;;;;;;15.24;74.26;100621.88;5067505;28;20110;-65
2024/03/14 10:46:13;;;;;;;12.98;5.25;;;;;;;14.88;74.62;100619.91;5088937;28;20064;-65
2024/03/14 10:48:44;;;;;;;11.85;5.57;;;;;;;15.00;75.18;100610.78;5104908;28;20083;-66
2024/03/14 10:51:19;;;;;;;11.07;5.00;;;;;;;15.13;74.73;100612.44;5087411;28;20048;-66
2024/03/14 10:53:49;;;;;;;12.75;5.10;;;;;;;15.28;73.61;100612.53;5089312;28;20051;-67
2024/03/14 10:56:22;;;;;;;12.73;5.32;;;;;;;15.13;74.12;100607.66;5098050;28;20044;-62
2024/03/14 10:58:55;;;;;;;9.95;5.22;;;;;;;15.21;74.37;100595.66;5084184;28;20059;-66
2024/03/14 11:01:24;;;;;;;10.57;5.00;;;;;;;15.06;74.69;100606.63;5094042;28;20067;-66
2024/03/14 11:03:55;;;;;;;13.23;5.07;;;;;;;15.27;73.65;100608.13;5092215;28;20055;-67
2024/03/14 11:06:36;;;;;;;12.95;5.22;;;;;;;15.42;73.57;100598.34;5089137;28;20040;-66
2024/03/14 11:09:10;;;;;;;10.63;5.55;;;;;;;15.49;72.55;100593.81;5087782;28;20050;-71
2024/03/14 11:11:38;;;;;;;13.48;5.00;;;;;;;15.75;72.00;100585.91;5079810;28;20043;-69
2024/03/14 11:14:11;;;;;;;17.05;5.20;;;;;;;15.73;71.86;100579.88;5087693;28;20415;-64
2024/03/14 11:16:39;;;;;;;11.18;4.65;;;;;;;15.90;71.27;100578.78;5084203;28;20056;-63
2024/03/14 11:19:07;;;;;;;10.73;4.65;;;;;;;15.89;71.13;100579.13;5071771;28;20055;-65
2024/03/14 11:21:35;;;;;;;17.85;5.40;;;;;;;15.85;71.03;100572.69;5076314;28;20052;-64
2024/03/14 11:24:09;;;;;;;19.50;7.35;;;;;;;15.95;70.30;100577.75;5086095;28;20051;-65
2024/03/14 11:26:44;;;;;;;19.95;9.18;;;;;;;16.26;70.30;100578.66;5081859;28;20059;-64
2024/03/14 11:29:15;;;;;;;34.20;15.50;;;;;;;16.43;69.78;100560.84;5096476;27;20040;-64